Time;durP1;ratioP1;P1;durP2;ratioP2;P2;SDS_P1;SDS_P2;PMS_P1;PMS_P2;Temp;Humidity;BMP_temperature;BMP_pressure;BME280_temperature;BME280_humidity;BME280_pressure;Samples;Min_cycle;Max_cycle;Signal;HPM_P1;HPM_P2
2023/05/22 00:01:21;;;;;;;2.08;1.20;;;;;;;22.59;67.50;101021.53;4989527;28;20436;-67
2023/05/22 00:03:47;;;;;;;1.55;1.08;;;;;;;22.60;67.17;101028.59;4990253;28;20037;-68
2023/05/22 00:06:13;;;;;;;2.22;1.15;;;;;;;22.65;66.96;101019.06;4989834;28;20814;-67
2023/05/22 00:08:39;;;;;;;2.33;1.30;;;;;;;22.49;67.30;101019.81;4986373;28;20121;-67
2023/05/22 00:11:04;;;;;;;2.80;1.42;;;;;;;22.48;68.01;101020.97;4989970;28;20109;-67
2023/05/22 00:13:30;;;;;;;1.67;1.15;;;;;;;22.46;67.17;101015.16;4990852;28;20777;-67
2023/05/22 00:16:16;;;;;;;1.58;0.85;;;;;;;22.40;67.73;101020.38;4990222;28;20563;-67
2023/05/22 00:18:41;;;;;;;2.35;1.30;;;;;;;22.36;67.91;101003.22;4889365;29;20827;-67
2023/05/22 00:21:08;;;;;;;1.65;1.23;;;;;;;22.50;66.99;101010.34;4891520;29;20229;-68
2023/05/22 00:23:34;;;;;;;2.60;1.40;;;;;;;22.53;66.53;101001.25;4888354;29;20766;-67
2023/05/22 00:25:59;;;;;;;1.55;0.98;;;;;;;22.26;67.21;101008.94;4890951;29;20036;-67
2023/05/22 00:28:25;;;;;;;3.78;1.50;;;;;;;22.26;67.18;101006.97;4875576;29;20489;-67
2023/05/22 00:30:51;;;;;;;1.10;0.80;;;;;;;22.28;67.36;101010.03;4886300;29;20043;-67
2023/05/22 00:33:16;;;;;;;2.88;1.30;;;;;;;22.20;66.87;101013.38;4890779;29;20943;-67
2023/05/22 00:35:42;;;;;;;1.10;0.90;;;;;;;22.28;66.66;101018.28;4891782;29;20052;-66
2023/05/22 00:38:08;;;;;;;1.70;1.02;;;;;;;22.23;66.45;101012.53;4886729;29;20155;-67
2023/05/22 00:40:33;;;;;;;1.83;1.17;;;;;;;22.36;66.16;101002.44;4891456;29;20037;-67
2023/05/22 00:42:59;;;;;;;2.95;1.30;;;;;;;22.41;65.89;101004.69;4891450;29;20461;-67
2023/05/22 00:45:25;;;;;;;3.30;1.90;;;;;;;22.36;65.89;101002.44;4888386;29;20085;-67
2023/05/22 00:47:51;;;;;;;1.55;1.08;;;;;;;22.40;65.53;101008.63;4888325;29;20052;-66
2023/05/22 00:50:17;;;;;;;1.88;1.08;;;;;;;22.25;65.84;101001.91;4883526;29;20135;-67
2023/05/22 00:52:45;;;;;;;2.20;1.33;;;;;;;22.19;66.05;101009.09;4891461;29;20056;-67
2023/05/22 00:55:12;;;;;;;1.92;1.00;;;;;;;22.15;66.73;101003.69;4921957;28;20124;-68
2023/05/22 00:57:41;;;;;;;1.45;1.20;;;;;;;22.19;66.70;101004.38;4987981;28;20062;-68
2023/05/22 01:00:10;;;;;;;1.42;1.10;;;;;;;22.22;66.11;101008.25;4982384;28;20128;-68
2023/05/22 01:02:36;;;;;;;1.45;1.20;;;;;;;22.19;66.24;101011.81;4986014;28;20042;-67
2023/05/22 01:05:04;;;;;;;1.58;1.23;;;;;;;22.01;66.94;101014.19;4988349;28;20122;-67
2023/05/22 01:07:30;;;;;;;2.38;1.10;;;;;;;22.01;66.91;101011.44;4980297;28;20255;-67
2023/05/22 01:09:56;;;;;;;2.15;1.30;;;;;;;22.01;66.86;101016.94;4969510;28;20475;-68
2023/05/22 01:12:30;;;;;;;2.35;1.60;;;;;;;22.02;66.71;101012.97;4968237;28;20074;-67
2023/05/22 01:15:25;;;;;;;1.85;1.40;;;;;;;22.02;66.96;101015.72;4988280;28;20708;-66
2023/05/22 01:18:09;;;;;;;1.13;0.93;;;;;;;21.97;67.32;101014.25;4983840;28;20462;-69
2023/05/22 01:20:35;;;;;;;2.00;1.30;;;;;;;21.87;67.72;101006.25;4987973;28;20069;-68
2023/05/22 01:23:16;;;;;;;1.15;0.95;;;;;;;21.85;67.67;101012.16;4974784;28;20070;-69
2023/05/22 01:25:44;;;;;;;1.95;1.17;;;;;;;21.80;67.90;101003.59;4987765;28;20096;-65
2023/05/22 01:28:50;;;;;;;2.53;1.60;;;;;;;21.82;67.72;101007.50;4974241;28;20030;-69
2023/05/22 01:31:18;;;;;;;1.55;1.00;;;;;;;21.73;67.62;101001.78;4992881;28;20426;-69
2023/05/22 01:33:59;;;;;;;2.20;1.35;;;;;;;21.71;67.68;101000.66;4974615;28;20116;-69
2023/05/22 01:36:30;;;;;;;2.28;1.20;;;;;;;21.50;68.15;100999.09;4973909;28;20030;-68
2023/05/22 01:39:00;;;;;;;2.22;1.20;;;;;;;21.58;68.35;100998.53;4985425;28;20125;-68
2023/05/22 01:41:28;;;;;;;1.38;1.23;;;;;;;21.56;68.79;100989.19;4991406;28;20038;-68
2023/05/22 01:43:54;;;;;;;2.03;1.20;;;;;;;21.70;67.81;100997.13;4990282;28;20053;-68
2023/05/22 01:46:20;;;;;;;2.92;1.50;;;;;;;21.71;67.24;100989.69;4983970;28;20026;-69
2023/05/22 01:48:46;;;;;;;4.00;1.50;;;;;;;21.61;67.99;100994.19;4970317;28;20081;-67
2023/05/22 01:51:15;;;;;;;1.35;1.10;;;;;;;21.58;68.34;100993.03;4990813;28;20022;-68
2023/05/22 01:53:56;;;;;;;1.73;1.42;;;;;;;21.56;68.12;100995.44;4970631;28;20434;-69
2023/05/22 01:56:33;;;;;;;1.77;1.20;;;;;;;21.59;68.02;100999.31;4984542;28;20598;-68
2023/05/22 01:58:58;;;;;;;1.48;1.00;;;;;;;21.54;67.63;100997.81;4987289;28;20112;-65
2023/05/22 02:01:27;;;;;;;2.78;1.45;;;;;;;21.47;68.62;101002.66;4970368;28;20061;-68
2023/05/22 02:03:56;;;;;;;1.63;1.25;;;;;;;21.20;69.00;100989.06;4990089;28;20043;-67
2023/05/22 02:06:23;;;;;;;0.95;0.85;;;;;;;21.23;69.17;100991.00;4989182;28;20034;-68
2023/05/22 02:08:49;;;;;;;2.85;1.50;;;;;;;21.11;69.59;100994.31;4972397;28;20069;-68
2023/05/22 02:11:20;;;;;;;1.10;1.00;;;;;;;21.22;68.97;100992.16;4987148;28;20034;-68
2023/05/22 02:14:10;;;;;;;1.85;1.33;;;;;;;21.26;68.96;100992.09;4970153;28;20033;-67
2023/05/22 02:16:36;;;;;;;1.60;1.02;;;;;;;21.23;69.11;100993.72;4923132;29;20131;-68
2023/05/22 02:19:05;;;;;;;2.15;1.27;;;;;;;21.16;69.37;100979.34;4937745;28;20520;-68
2023/05/22 02:21:34;;;;;;;2.28;1.35;;;;;;;21.26;69.21;100984.66;4914470;29;20097;-68
2023/05/22 02:24:01;;;;;;;4.85;1.23;;;;;;;21.25;69.00;100974.13;4941882;28;20046;-68
2023/05/22 02:26:27;;;;;;;3.72;1.50;;;;;;;21.23;68.64;100974.56;4946040;28;20737;-66
2023/05/22 02:28:52;;;;;;;3.17;1.73;;;;;;;21.16;69.06;100980.13;4947963;28;20043;-68
2023/05/22 02:31:18;;;;;;;1.63;1.10;;;;;;;21.20;69.19;100967.16;4937466;29;21041;-69
2023/05/22 02:33:43;;;;;;;1.85;0.95;;;;;;;21.23;68.93;100971.03;4928992;28;20452;-68
2023/05/22 02:36:11;;;;;;;1.98;0.98;;;;;;;21.12;68.84;100959.47;4940038;28;20086;-69
2023/05/22 02:38:37;;;;;;;1.58;1.20;;;;;;;21.06;69.19;100963.91;4930917;29;20043;-68
2023/05/22 02:41:03;;;;;;;1.80;1.35;;;;;;;21.05;69.10;100965.09;4927773;28;20039;-69
2023/05/22 02:43:29;;;;;;;2.45;1.35;;;;;;;20.95;69.27;100957.78;4929844;29;20122;-69
2023/05/22 02:45:54;;;;;;;0.95;0.85;;;;;;;20.98;69.05;100960.47;4936001;28;20046;-67
2023/05/22 02:48:20;;;;;;;1.92;1.40;;;;;;;21.05;69.10;100954.91;4931620;28;20043;-69
2023/05/22 02:50:47;;;;;;;2.03;1.35;;;;;;;21.00;69.31;100952.59;4932850;29;20675;-67
2023/05/22 02:53:14;;;;;;;2.45;1.55;;;;;;;20.94;69.11;100948.81;4954297;28;20395;-68
2023/05/22 02:55:40;;;;;;;1.27;0.98;;;;;;;20.97;69.02;100956.19;4993613;28;20055;-69
2023/05/22 02:58:10;;;;;;;1.73;1.20;;;;;;;20.97;69.31;100953.44;4972718;28;20037;-68
2023/05/22 03:00:38;;;;;;;2.03;1.38;;;;;;;20.89;69.39;100952.03;4975247;28;20038;-68
2023/05/22 03:03:05;;;;;;;2.67;1.38;;;;;;;20.92;69.29;100948.47;4977178;28;20046;-69
2023/05/22 03:05:31;;;;;;;2.33;0.88;;;;;;;20.85;69.47;100945.81;4994259;28;20038;-67
2023/05/22 03:07:57;;;;;;;3.20;1.20;;;;;;;20.85;69.73;100939.59;4974683;28;20018;-68
2023/05/22 03:10:24;;;;;;;1.23;0.80;;;;;;;20.94;68.43;100937.88;4971804;28;20030;-68
2023/05/22 03:12:52;;;;;;;1.25;0.90;;;;;;;20.97;68.10;100939.75;4991175;28;20487;-68
2023/05/22 03:15:18;;;;;;;1.73;1.20;;;;;;;20.94;67.95;100939.81;4975539;28;20053;-68
2023/05/22 03:17:43;;;;;;;1.80;1.38;;;;;;;20.89;68.73;100935.59;4975488;28;20058;-68
2023/05/22 03:20:13;;;;;;;2.03;1.08;;;;;;;20.89;68.39;100934.81;4974169;28;20034;-68
2023/05/22 03:22:39;;;;;;;1.80;1.38;;;;;;;20.85;68.05;100937.59;4977895;28;20033;-68
2023/05/22 03:25:08;;;;;;;1.15;0.95;;;;;;;20.88;67.76;100947.75;4992694;28;20550;-68
2023/05/22 03:27:34;;;;;;;2.47;1.20;;;;;;;20.87;67.94;100945.41;4990211;28;20026;-68
2023/05/22 03:30:03;;;;;;;2.63;1.38;;;;;;;20.87;67.97;100942.66;4975473;28;20083;-63
2023/05/22 03:32:30;;;;;;;1.80;1.03;;;;;;;20.77;67.58;100944.38;4978269;28;20682;-67
2023/05/22 03:34:57;;;;;;;2.55;1.30;;;;;;;20.66;67.84;100944.59;4988068;28;20117;-67
2023/05/22 03:37:22;;;;;;;2.25;1.48;;;;;;;20.67;68.01;100948.09;4968665;28;20042;-68
2023/05/22 03:39:48;;;;;;;1.85;1.00;;;;;;;20.68;68.29;100942.22;4987851;28;20502;-66
2023/05/22 03:42:20;;;;;;;1.63;1.27;;;;;;;20.66;68.39;100944.59;4979544;28;20018;-66
2023/05/22 03:44:46;;;;;;;2.38;1.20;;;;;;;20.69;68.23;100940.25;4973553;28;20030;-66
2023/05/22 03:47:11;;;;;;;3.08;1.48;;;;;;;20.77;67.77;100935.44;4975563;28;20450;-67
2023/05/22 03:49:37;;;;;;;1.90;1.30;;;;;;;20.84;67.68;100938.81;4976430;28;20056;-67
2023/05/22 03:52:03;;;;;;;5.63;1.33;;;;;;;20.86;67.22;100939.16;4973281;28;20030;-68
2023/05/22 03:54:29;;;;;;;1.20;1.08;;;;;;;20.80;67.02;100932.63;4993029;28;20049;-67
2023/05/22 03:56:55;;;;;;;2.60;1.30;;;;;;;20.75;67.49;100941.28;4972036;28;20022;-67
2023/05/22 03:59:20;;;;;;;1.30;1.00;;;;;;;20.88;67.12;100939.53;4992477;28;20041;-67
2023/05/22 04:01:49;;;;;;;1.08;0.82;;;;;;;20.90;66.83;100945.38;4989627;28;20088;-67
2023/05/22 04:04:16;;;;;;;1.40;0.95;;;;;;;20.86;66.67;100943.88;4975591;28;20463;-68
2023/05/22 04:06:42;;;;;;;1.67;1.13;;;;;;;20.86;66.82;100941.91;4974372;28;20065;-67
2023/05/22 04:09:11;;;;;;;1.67;1.02;;;;;;;20.96;66.43;100935.47;4993061;28;20034;-68
2023/05/22 04:11:41;;;;;;;3.00;0.93;;;;;;;20.90;66.18;100937.16;4989532;28;20030;-69
2023/05/22 04:14:07;;;;;;;1.80;1.20;;;;;;;20.90;66.19;100931.66;4975204;28;20564;-68
2023/05/22 04:16:33;;;;;;;1.98;1.08;;;;;;;20.95;65.76;100933.13;4991768;28;20041;-67
2023/05/22 04:19:01;;;;;;;1.25;0.77;;;;;;;20.89;66.13;100932.06;4954764;28;20090;-66
2023/05/22 04:21:27;;;;;;;0.77;0.77;;;;;;;20.89;66.19;100934.81;4953585;28;20030;-66
2023/05/22 04:23:53;;;;;;;1.40;1.02;;;;;;;20.94;66.05;100931.59;4988789;28;20046;-66
2023/05/22 04:26:38;;;;;;;1.25;0.82;;;;;;;21.04;65.16;100928.69;4990038;28;20026;-66
2023/05/22 04:29:09;;;;;;;1.58;1.00;;;;;;;21.06;64.50;100933.78;4929596;29;20496;-65
2023/05/22 04:31:35;;;;;;;1.77;1.10;;;;;;;20.96;64.25;100935.47;4926215;29;20052;-65
2023/05/22 04:34:01;;;;;;;1.17;0.90;;;;;;;21.01;63.91;100926.03;4929026;29;20044;-65
2023/05/22 04:36:27;;;;;;;1.27;1.02;;;;;;;20.84;64.65;100933.34;4906630;29;20036;-65
2023/05/22 04:38:54;;;;;;;2.58;1.05;;;;;;;21.02;64.26;100933.81;4920454;29;20040;-65
2023/05/22 04:41:21;;;;;;;1.92;1.27;;;;;;;21.08;64.33;100931.38;4927930;29;20103;-65
2023/05/22 04:43:47;;;;;;;2.40;0.90;;;;;;;21.14;64.25;100927.72;4929202;29;20068;-68
2023/05/22 04:46:15;;;;;;;1.02;0.90;;;;;;;21.24;63.84;100934.19;4924769;29;20108;-66
2023/05/22 04:48:41;;;;;;;1.70;1.08;;;;;;;21.30;63.44;100932.53;4914565;29;20525;-65
2023/05/22 04:51:08;;;;;;;3.58;1.20;;;;;;;21.30;63.90;100936.03;4926418;29;20040;-65
2023/05/22 04:53:34;;;;;;;1.45;1.05;;;;;;;21.34;63.23;100931.28;4914633;29;20047;-65
2023/05/22 04:56:01;;;;;;;1.85;1.10;;;;;;;21.36;62.90;100923.41;4899869;29;20032;-65
2023/05/22 04:58:28;;;;;;;2.03;1.27;;;;;;;21.38;62.68;100931.97;4913965;29;20039;-66
2023/05/22 05:00:56;;;;;;;1.67;1.00;;;;;;;21.47;62.01;100931.41;4896166;29;20087;-66
2023/05/22 05:03:25;;;;;;;0.90;0.70;;;;;;;21.52;60.90;100928.94;4931565;29;20415;-66
2023/05/22 05:05:51;;;;;;;1.60;0.90;;;;;;;21.50;61.30;100920.34;4942171;28;20046;-66
2023/05/22 05:08:16;;;;;;;0.90;0.80;;;;;;;21.55;61.37;100917.13;4985373;28;20092;-66
2023/05/22 05:10:42;;;;;;;1.48;0.98;;;;;;;21.70;61.34;100923.09;4959525;28;20034;-66
2023/05/22 05:13:08;;;;;;;1.38;1.15;;;;;;;21.77;61.09;100922.97;4980934;28;20112;-66
2023/05/22 05:15:36;;;;;;;1.10;1.00;;;;;;;21.82;61.63;100918.94;4980392;28;20114;-65
2023/05/22 05:18:22;;;;;;;1.13;1.02;;;;;;;21.86;60.68;100927.88;4979213;28;20058;-66
2023/05/22 05:20:47;;;;;;;4.25;0.98;;;;;;;21.92;61.53;100928.94;4908596;29;20072;-65
2023/05/22 05:23:14;;;;;;;1.85;1.10;;;;;;;22.07;59.82;100927.41;4902031;29;20048;-66
2023/05/22 05:25:39;;;;;;;1.42;1.33;;;;;;;22.18;58.66;100930.72;4903775;29;20040;-66
2023/05/22 05:28:10;;;;;;;1.63;0.93;;;;;;;22.37;57.71;100918.88;4909786;29;20569;-66
2023/05/22 05:30:37;;;;;;;;;;;;;;;22.59;57.07;100914.44;4901258;29;20074;-66
2023/05/22 05:33:10;;;;;;;1.23;1.10;;;;;;;22.79;55.68;100931.59;4917448;29;20078;-65
2023/05/22 05:35:42;;;;;;;1.25;1.00;;;;;;;22.93;54.83;100931.25;4907775;29;20032;-66
2023/05/22 05:38:09;;;;;;;1.20;1.00;;;;;;;23.12;55.37;100929.56;4908783;29;20043;-65
2023/05/22 05:40:37;;;;;;;1.10;0.90;;;;;;;23.26;54.86;100934.69;4902191;29;20126;-67
2023/05/22 05:43:05;;;;;;;1.55;0.90;;;;;;;23.38;54.37;100934.00;4919288;29;20111;-67
2023/05/22 05:45:32;;;;;;;1.25;0.80;;;;;;;23.46;53.51;100929.81;4909392;29;20106;-66
2023/05/22 05:47:57;;;;;;;2.08;1.00;;;;;;;23.61;53.33;100936.47;4914765;29;20413;-66
2023/05/22 05:50:23;;;;;;;1.77;1.27;;;;;;;23.56;52.89;100934.25;4896703;29;20036;-65
2023/05/22 05:52:48;;;;;;;0.77;0.77;;;;;;;23.65;53.33;100937.16;4923058;29;20023;-66
2023/05/22 05:55:16;;;;;;;1.15;0.82;;;;;;;23.89;53.31;100929.34;4928577;29;20036;-67
2023/05/22 05:57:42;;;;;;;1.77;0.77;;;;;;;23.83;52.09;100931.09;4936573;28;20071;-68
2023/05/22 06:00:13;;;;;;;1.55;0.80;;;;;;;23.85;51.97;100926.72;4972650;28;20394;-66
2023/05/22 06:02:42;;;;;;;1.05;0.82;;;;;;;23.80;51.90;100916.25;4990625;28;20446;-67
2023/05/22 06:05:28;;;;;;;1.40;0.88;;;;;;;23.82;52.52;100924.84;4988797;28;20050;-65
2023/05/22 06:08:01;;;;;;;1.65;1.10;;;;;;;23.85;52.10;100915.69;4969500;28;20027;-66
2023/05/22 06:10:26;;;;;;;1.65;1.23;;;;;;;23.83;51.99;100909.88;4987746;28;20144;-65
2023/05/22 06:13:09;;;;;;;1.60;1.00;;;;;;;23.79;52.39;100920.22;4968545;28;20053;-67
2023/05/22 06:15:38;;;;;;;1.92;0.63;;;;;;;23.78;53.01;100915.94;4988103;28;20104;-67
2023/05/22 06:18:04;;;;;;;2.78;0.90;;;;;;;23.79;52.30;100917.47;4968086;28;20059;-67
2023/05/22 06:20:29;;;;;;;4.03;1.10;;;;;;;23.76;53.15;100901.84;4981586;28;20057;-66
2023/05/22 06:22:55;;;;;;;1.42;1.10;;;;;;;23.99;52.83;100911.75;4973474;28;20058;-67
2023/05/22 06:25:22;;;;;;;1.17;1.00;;;;;;;23.95;53.61;100911.88;4991838;28;20406;-65
2023/05/22 06:27:48;;;;;;;1.25;0.90;;;;;;;24.06;53.10;100917.09;4975886;28;20025;-66
2023/05/22 06:30:15;;;;;;;1.15;0.90;;;;;;;24.11;52.72;100911.03;4974229;28;20133;-66
2023/05/22 06:32:41;;;;;;;0.60;0.60;;;;;;;24.23;52.44;100913.00;4986422;28;20121;-67
2023/05/22 06:35:07;;;;;;;1.92;1.48;;;;;;;24.37;51.73;100909.78;4975841;28;20422;-66
2023/05/22 06:37:34;;;;;;;1.17;0.85;;;;;;;24.60;51.27;100923.19;4972866;28;20037;-67
2023/05/22 06:40:00;;;;;;;1.08;0.90;;;;;;;24.61;51.10;100924.75;4993219;28;20026;-66
2023/05/22 06:42:39;;;;;;;4.10;1.10;;;;;;;24.65;51.79;100928.16;4967149;28;20435;-66
2023/05/22 06:45:28;;;;;;;1.42;0.80;;;;;;;24.84;51.24;100927.13;4988557;28;20050;-67
2023/05/22 06:48:12;;;;;;;1.90;0.95;;;;;;;25.05;49.85;100920.88;4989996;28;20129;-65
2023/05/22 06:50:48;;;;;;;1.05;0.80;;;;;;;25.30;49.47;100924.75;4977082;28;20029;-65
2023/05/22 06:53:13;;;;;;;1.00;0.75;;;;;;;25.25;49.51;100933.59;4975929;28;20121;-66
2023/05/22 06:55:39;;;;;;;1.25;0.70;;;;;;;25.32;49.51;100928.59;4976534;28;20034;-66
2023/05/22 06:58:11;;;;;;;2.88;0.65;;;;;;;25.44;49.14;100935.28;4971795;28;20034;-65
2023/05/22 07:00:37;;;;;;;1.23;0.90;;;;;;;25.57;48.65;100933.25;4992234;28;20030;-67
2023/05/22 07:03:23;;;;;;;1.15;0.70;;;;;;;25.81;47.75;100931.53;4988812;28;20046;-67
2023/05/22 07:06:14;;;;;;;0.77;0.57;;;;;;;25.70;47.99;100933.94;4987980;28;20050;-65
2023/05/22 07:08:41;;;;;;;1.15;0.90;;;;;;;25.66;48.36;100930.53;4976100;28;20022;-66
2023/05/22 07:11:07;;;;;;;2.42;0.98;;;;;;;25.73;48.26;100935.78;4973606;28;20023;-67
2023/05/22 07:13:33;;;;;;;1.05;0.70;;;;;;;25.81;48.61;100934.31;4976108;28;20049;-66
2023/05/22 07:15:58;;;;;;;0.90;0.80;;;;;;;25.73;47.59;100936.56;4972973;28;20027;-66
2023/05/22 07:18:24;;;;;;;1.08;0.60;;;;;;;25.81;48.95;100926.03;4969998;28;20042;-66
2023/05/22 07:20:50;;;;;;;1.25;0.75;;;;;;;26.07;48.40;100932.94;4972408;28;20030;-64
2023/05/22 07:23:18;;;;;;;1.10;0.80;;;;;;;26.36;48.58;100938.09;4980355;28;20730;-66
2023/05/22 07:25:44;;;;;;;1.00;0.70;;;;;;;26.61;47.26;100926.81;4991737;28;20034;-66
2023/05/22 07:28:11;;;;;;;1.10;0.90;;;;;;;26.83;47.17;100913.66;4985230;28;20022;-66
2023/05/22 07:30:47;;;;;;;1.92;0.98;;;;;;;26.97;45.89;100920.56;4976407;28;20137;-66
2023/05/22 07:33:14;;;;;;;0.93;0.73;;;;;;;26.90;45.07;100923.66;4974158;28;20518;-66
2023/05/22 07:35:41;;;;;;;2.10;1.38;;;;;;;27.20;45.62;100928.25;4971874;28;20578;-67
2023/05/22 07:38:06;;;;;;;1.13;0.70;;;;;;;27.49;44.47;100923.78;4989146;28;20058;-66
2023/05/22 07:40:31;;;;;;;0.98;0.63;;;;;;;27.65;44.37;100917.13;4972991;28;20499;-66
2023/05/22 07:42:57;;;;;;;1.35;0.77;;;;;;;27.85;44.56;100925.72;4988159;28;20117;-66
2023/05/22 07:45:23;;;;;;;0.73;0.52;;;;;;;27.93;43.45;100917.84;4974041;28;20058;-67
2023/05/22 07:47:49;;;;;;;1.10;0.80;;;;;;;28.14;43.08;100920.38;4972129;28;20041;-66
2023/05/22 07:50:14;;;;;;;1.25;0.73;;;;;;;28.12;43.62;100919.31;4991332;28;20034;-66
2023/05/22 07:52:43;;;;;;;0.70;0.70;;;;;;;28.23;43.66;100914.78;4972025;28;20562;-66
2023/05/22 07:55:09;;;;;;;1.30;0.50;;;;;;;28.23;42.93;100911.25;4975518;28;20027;-66
2023/05/22 07:57:38;;;;;;;0.75;0.60;;;;;;;28.36;43.41;100920.09;4971603;28;20454;-66
2023/05/22 08:00:13;;;;;;;1.30;0.70;;;;;;;28.41;42.68;100920.25;4984068;28;21472;-66
2023/05/22 08:02:39;;;;;;;1.05;0.88;;;;;;;28.37;42.47;100911.34;4990865;28;20042;-66
2023/05/22 08:05:06;;;;;;;1.75;0.65;;;;;;;28.23;42.28;100914.78;4992598;28;20565;-67
2023/05/22 08:07:31;;;;;;;1.38;0.85;;;;;;;28.15;42.34;100910.81;4983538;28;20100;-66
2023/05/22 08:09:58;;;;;;;0.82;0.50;;;;;;;27.72;41.83;100905.72;4975534;28;20034;-66
2023/05/22 08:12:23;;;;;;;0.90;0.65;;;;;;;27.72;40.88;100911.28;4989346;28;20037;-67
2023/05/22 08:14:48;;;;;;;1.27;0.80;;;;;;;27.88;41.73;100918.44;4992801;28;20042;-67
2023/05/22 08:17:14;;;;;;;0.93;0.68;;;;;;;27.94;42.31;100919.34;4988676;28;20027;-67
2023/05/22 08:19:39;;;;;;;1.73;0.90;;;;;;;28.24;41.41;100908.00;4992961;28;20030;-66
2023/05/22 08:22:05;;;;;;;1.90;0.90;;;;;;;28.02;42.74;100918.59;4975058;28;20104;-65
2023/05/22 08:24:30;;;;;;;1.20;0.70;;;;;;;28.27;41.99;100915.41;4985579;28;20096;-67
2023/05/22 08:26:59;;;;;;;0.43;0.43;;;;;;;28.51;41.14;100913.41;4974403;28;20121;-66
2023/05/22 08:29:25;;;;;;;1.23;0.70;;;;;;;28.64;41.13;100915.19;4992798;28;20030;-66
2023/05/22 08:31:52;;;;;;;1.67;0.70;;;;;;;28.81;40.23;100917.06;4984092;28;20544;-67
2023/05/22 08:34:18;;;;;;;0.85;0.60;;;;;;;28.88;40.57;100908.38;4973785;28;20057;-66
2023/05/22 08:36:43;;;;;;;0.93;0.70;;;;;;;28.76;39.96;100911.41;4985046;28;20057;-65
2023/05/22 08:39:09;;;;;;;0.82;0.73;;;;;;;28.74;40.39;100908.34;4991666;28;20046;-65
2023/05/22 08:41:35;;;;;;;1.10;0.80;;;;;;;28.80;40.22;100910.00;4975027;28;20077;-66
2023/05/22 08:44:03;;;;;;;1.30;0.88;;;;;;;28.69;41.11;100907.00;4970131;28;20042;-66
2023/05/22 08:46:29;;;;;;;0.50;0.50;;;;;;;28.68;40.07;100907.47;4990966;28;20049;-66
2023/05/22 08:48:56;;;;;;;0.50;0.50;;;;;;;28.69;40.17;100897.94;4991961;28;20062;-66
2023/05/22 08:51:27;;;;;;;1.00;0.70;;;;;;;28.66;41.26;100907.94;4991834;28;20031;-66
2023/05/22 08:53:55;;;;;;;0.88;0.80;;;;;;;28.55;40.27;100904.94;4990460;28;20053;-66
2023/05/22 08:56:21;;;;;;;1.25;0.57;;;;;;;28.73;40.67;100898.47;4977774;28;20027;-65
2023/05/22 08:58:46;;;;;;;0.60;0.40;;;;;;;28.84;41.08;100893.19;4975980;28;20042;-65
2023/05/22 09:01:12;;;;;;;0.93;0.80;;;;;;;28.93;41.51;100896.66;4983083;28;20026;-65
2023/05/22 09:03:38;;;;;;;0.60;0.60;;;;;;;28.88;40.81;100888.22;4988736;28;20360;-66
2023/05/22 09:06:09;;;;;;;0.73;0.60;;;;;;;28.98;40.67;100889.66;4977067;28;20058;-66
2023/05/22 09:08:34;;;;;;;;;;;;;;;29.08;40.04;100888.34;4984722;28;20038;-65
2023/05/22 09:11:00;;;;;;;0.65;0.45;;;;;;;29.25;42.06;100883.88;4986891;28;20425;-66
2023/05/22 09:13:27;;;;;;;0.68;0.45;;;;;;;29.48;40.85;100885.06;4988267;28;20045;-65
2023/05/22 09:15:58;;;;;;;1.20;0.60;;;;;;;29.56;39.99;100886.94;4988336;28;20112;-65
2023/05/22 09:18:28;;;;;;;2.33;0.90;;;;;;;29.14;38.49;100881.69;4989958;28;20399;-65
2023/05/22 09:20:56;;;;;;;0.75;0.60;;;;;;;29.13;39.51;100882.16;4983676;28;20117;-65
2023/05/22 09:23:22;;;;;;;0.55;0.50;;;;;;;29.02;40.48;100870.81;4983647;28;20161;-66
2023/05/22 09:25:48;;;;;;;3.13;0.70;;;;;;;29.19;40.87;100878.22;4986828;28;20034;-66
2023/05/22 09:28:13;;;;;;;1.10;0.68;;;;;;;29.32;39.81;100883.53;4983549;28;20133;-66
2023/05/22 09:30:40;;;;;;;1.88;0.65;;;;;;;29.51;39.96;100881.31;4990056;28;20034;-65
2023/05/22 09:33:07;;;;;;;1.23;0.90;;;;;;;29.72;40.80;100875.38;4981011;28;20503;-66
2023/05/22 09:35:35;;;;;;;1.27;0.88;;;;;;;29.91;39.90;100876.69;4983304;28;20407;-66
2023/05/22 09:38:00;;;;;;;5.32;2.65;;;;;;;30.05;38.54;100867.56;4962757;28;20511;-65
2023/05/22 09:40:27;;;;;;;20.67;8.60;;;;;;;30.24;38.47;100879.94;4983960;28;20140;-66
2023/05/22 09:42:52;;;;;;;24.63;10.10;;;;;;;30.27;37.85;100867.88;4988748;28;20804;-65
2023/05/22 09:45:25;;;;;;;13.35;5.30;;;;;;;30.35;38.15;100870.25;4966728;28;20034;-65
2023/05/22 09:47:50;;;;;;;5.80;2.38;;;;;;;29.93;39.06;100863.06;4974889;28;20065;-65
2023/05/22 09:50:16;;;;;;;9.93;3.85;;;;;;;30.09;38.32;100862.56;4990482;28;20030;-66
2023/05/22 09:52:44;;;;;;;2.00;1.08;;;;;;;30.25;38.06;100864.78;4982914;28;20038;-66
2023/05/22 09:55:12;;;;;;;4.72;0.80;;;;;;;30.44;37.95;100861.78;4980074;28;20034;-66
2023/05/22 09:57:47;;;;;;;1.13;0.80;;;;;;;30.41;38.29;100868.31;4986618;28;20407;-66
2023/05/22 10:00:17;;;;;;;1.55;0.90;;;;;;;30.45;38.08;100863.31;4988402;28;20078;-66
2023/05/22 10:02:45;;;;;;;0.80;0.80;;;;;;;30.34;38.34;100858.38;4980528;28;20407;-65
2023/05/22 10:05:14;;;;;;;1.27;0.70;;;;;;;30.79;37.66;100852.09;4985363;28;20177;-66
2023/05/22 10:07:47;;;;;;;0.50;0.45;;;;;;;31.25;37.18;100845.72;4986273;28;20156;-67
2023/05/22 10:10:16;;;;;;;0.70;0.63;;;;;;;31.15;37.17;100845.13;4988979;28;20487;-65
2023/05/22 10:12:46;;;;;;;2.20;0.70;;;;;;;31.52;36.92;100836.88;4990092;28;20061;-66
2023/05/22 10:15:12;;;;;;;1.20;0.70;;;;;;;31.66;36.18;100825.59;4988837;28;20052;-66
2023/05/22 10:17:41;;;;;;;1.50;0.63;;;;;;;31.83;35.92;100820.88;4983983;28;20781;-66
2023/05/22 10:20:11;;;;;;;0.77;0.77;;;;;;;32.09;36.12;100823.59;4972580;28;20030;-67
2023/05/22 10:22:37;;;;;;;0.50;0.50;;;;;;;32.10;35.85;100824.34;4981725;28;20026;-65
2023/05/22 10:25:04;;;;;;;1.23;0.82;;;;;;;32.23;35.33;100821.91;4983396;28;20505;-67
2023/05/22 10:27:30;;;;;;;1.10;0.90;;;;;;;32.27;35.38;100814.06;4985836;28;20042;-66
2023/05/22 10:30:09;;;;;;;0.70;0.45;;;;;;;32.41;35.50;100830.59;4988599;28;20036;-65
2023/05/22 10:32:41;;;;;;;1.10;0.73;;;;;;;32.50;35.36;100819.22;4974296;28;20503;-65
2023/05/22 10:35:25;;;;;;;1.17;0.70;;;;;;;32.40;34.49;100815.13;4976016;28;20046;-66
2023/05/22 10:37:53;;;;;;;1.45;0.80;;;;;;;32.43;35.08;100816.91;4979790;28;20454;-67
2023/05/22 10:40:27;;;;;;;0.50;0.50;;;;;;;32.53;34.33;100807.06;4986425;28;20026;-67
2023/05/22 10:43:01;;;;;;;0.90;0.80;;;;;;;32.67;34.14;100810.91;4986116;28;20491;-66
2023/05/22 10:45:27;;;;;;;0.93;0.70;;;;;;;32.58;33.70;100803.53;4985382;28;20100;-66
2023/05/22 10:48:06;;;;;;;0.80;0.73;;;;;;;32.41;34.45;100791.53;4982616;28;20030;-66
2023/05/22 10:50:33;;;;;;;1.85;0.75;;;;;;;32.44;34.48;100798.91;4989426;28;20042;-65
2023/05/22 10:53:23;;;;;;;0.80;0.57;;;;;;;32.52;35.48;100797.16;4985959;28;20066;-65
2023/05/22 10:55:49;;;;;;;0.50;0.50;;;;;;;32.91;34.77;100788.88;4985636;28;20038;-66
2023/05/22 10:58:16;;;;;;;0.93;0.70;;;;;;;32.75;33.54;100792.41;4981025;28;20046;-66
2023/05/22 11:00:42;;;;;;;0.70;0.65;;;;;;;32.78;34.83;100780.22;4985522;28;20117;-65
2023/05/22 11:03:08;;;;;;;0.57;0.47;;;;;;;33.07;34.50;100793.75;4981492;28;20106;-66
2023/05/22 11:05:35;;;;;;;1.63;0.98;;;;;;;33.35;34.18;100783.31;4987019;28;20042;-66
2023/05/22 11:08:25;;;;;;;0.70;0.70;;;;;;;33.39;32.72;100792.22;4983719;28;20053;-65
2023/05/22 11:10:55;;;;;;;0.52;0.52;;;;;;;33.44;32.96;100782.31;4983581;28;20034;-65
2023/05/22 11:13:20;;;;;;;1.10;1.00;;;;;;;33.32;33.94;100778.75;4986707;28;20073;-66
2023/05/22 11:15:46;;;;;;;1.02;0.75;;;;;;;33.39;33.64;100771.91;4987668;28;20396;-66
2023/05/22 11:18:15;;;;;;;1.30;1.20;;;;;;;33.10;33.32;100775.97;4992040;28;20031;-66
2023/05/22 11:20:41;;;;;;;1.17;0.73;;;;;;;33.15;33.34;100780.03;4988902;28;20214;-67
2023/05/22 11:23:09;;;;;;;1.13;0.63;;;;;;;33.10;33.35;100778.00;4992447;28;20412;-66
2023/05/22 11:25:37;;;;;;;0.60;0.52;;;;;;;33.22;32.52;100773.94;4994206;28;20023;-65
2023/05/22 11:28:04;;;;;;;1.05;0.82;;;;;;;33.33;33.70;100771.16;4990037;28;20038;-66
2023/05/22 11:30:30;;;;;;;1.20;0.68;;;;;;;33.24;33.24;100763.78;4986684;28;20026;-66
2023/05/22 11:33:00;;;;;;;8.73;3.00;;;;;;;33.21;33.47;100762.00;4992429;28;20491;-65